createdAt,value
2017-08-10T00:01:30.427Z,82.16
2017-08-10T00:04:00.343Z,81.73
2017-08-10T00:06:30.015Z,81.11
2017-08-10T00:09:00.874Z,80.76
2017-08-10T00:11:30.191Z,86.45
2017-08-10T00:14:09.851Z,86.33
2017-08-10T00:16:39.189Z,87.76
2017-08-10T00:19:08.603Z,83.75
2017-08-10T00:21:38.507Z,83.04
2017-08-10T00:24:08.135Z,83.37
2017-08-10T00:26:37.666Z,84.65
2017-08-10T00:29:07.355Z,85.54
2017-08-10T00:31:36.699Z,86.80
2017-08-10T00:34:06.398Z,85.15
2017-08-10T00:36:36.001Z,85.53
2017-08-10T00:39:06.127Z,85.71
2017-08-10T00:41:35.671Z,85.79
2017-08-10T00:44:05.527Z,84.27
2017-08-10T00:46:34.963Z,84.22
2017-08-10T00:49:04.478Z,85.31
2017-08-10T00:51:33.983Z,83.97
2017-08-10T00:54:03.613Z,83.42
2017-08-10T00:56:33.110Z,84.90
2017-08-10T00:59:02.912Z,83.09
2017-08-10T01:01:32.611Z,84.01
2017-08-10T01:04:02.139Z,83.02
2017-08-10T01:06:31.977Z,82.72
2017-08-10T01:09:01.316Z,81.97
2017-08-10T01:11:30.807Z,85.27
2017-08-10T01:14:00.636Z,84.67
2017-08-10T01:16:30.019Z,85.51
2017-08-10T01:19:01.066Z,83.66
2017-08-10T01:21:32.691Z,83.34
2017-08-10T01:24:02.323Z,85.19
2017-08-10T01:26:31.771Z,84.23
2017-08-10T01:29:01.681Z,84.66
2017-08-10T01:31:31.197Z,84.52
2017-08-10T01:34:00.679Z,84.93
2017-08-10T01:36:30.680Z,84.93
2017-08-10T01:39:01.051Z,87.72
2017-08-10T01:41:30.379Z,90.69
2017-08-10T01:44:00.533Z,91.05
2017-08-10T01:46:30.166Z,87.81
2017-08-10T01:49:00.892Z,87.14
2017-08-10T01:51:30.275Z,85.91
2017-08-10T01:53:59.995Z,88.78
2017-08-10T01:56:33.885Z,92.17
2017-08-10T01:59:03.079Z,93.66
2017-08-10T02:01:32.982Z,93.31
2017-08-10T02:04:02.512Z,93.99
2017-08-10T02:06:32.147Z,94.65
2017-08-10T02:09:02.016Z,94.68
2017-08-10T02:11:31.192Z,94.55
2017-08-10T02:14:00.756Z,94.09
2017-08-10T02:16:30.366Z,94.85
2017-08-10T02:19:00.664Z,95.15
2017-08-10T02:21:30.202Z,95.59
2017-08-10T02:24:03.379Z,95.16
2017-08-10T02:26:32.616Z,95.75
2017-08-10T02:29:02.003Z,97.07
2017-08-10T02:31:31.490Z,95.82
2017-08-10T02:34:00.986Z,94.75
2017-08-10T02:36:30.296Z,91.96
2017-08-10T02:39:01.004Z,94.93
2017-08-10T02:41:30.467Z,95.71
2017-08-10T02:44:02.681Z,96.01
2017-08-10T02:46:32.606Z,94.78
2017-08-10T02:49:02.178Z,94.42
2017-08-10T02:51:32.002Z,95.46
2017-08-10T02:54:02.015Z,97.68
2017-08-10T02:56:31.541Z,97.29
2017-08-10T02:59:01.048Z,97.35
2017-08-10T03:01:31.149Z,98.49
2017-08-10T03:04:01.454Z,98.15
2017-08-10T03:06:31.011Z,99.64
2017-08-10T03:09:00.655Z,100.00
2017-08-10T03:11:30.374Z,100.00
2017-08-10T03:14:00.234Z,100.00
2017-08-10T03:16:29.591Z,100.00
2017-08-10T03:19:00.853Z,100.00
2017-08-10T03:21:32.100Z,100.00
2017-08-10T03:24:02.030Z,100.00
2017-08-10T03:26:31.433Z,100.00
2017-08-10T03:29:02.798Z,100.00
2017-08-10T03:31:32.144Z,100.00
2017-08-10T03:34:01.703Z,100.00
2017-08-10T03:36:31.079Z,100.00
2017-08-10T03:39:01.640Z,99.22
2017-08-10T03:41:31.324Z,96.02
2017-08-10T03:44:01.703Z,94.44
2017-08-10T03:46:31.879Z,93.18
2017-08-10T03:49:01.499Z,91.40
2017-08-10T03:51:31.048Z,93.94
2017-08-10T03:54:02.831Z,95.29
2017-08-10T03:56:32.275Z,97.15
2017-08-10T03:59:01.844Z,96.56
2017-08-10T04:01:38.486Z,97.78
2017-08-10T04:04:08.222Z,94.33
2017-08-10T04:06:38.902Z,93.98
2017-08-10T04:09:08.735Z,92.17
2017-08-10T04:11:42.261Z,94.53
2017-08-10T04:14:13.380Z,98.72
2017-08-10T04:16:43.032Z,100.00
2017-08-10T04:19:15.326Z,100.00
2017-08-10T04:21:44.694Z,98.36
2017-08-10T04:24:14.551Z,98.06
2017-08-10T04:26:44.455Z,99.62
2017-08-10T04:29:14.026Z,97.39
2017-08-10T04:31:43.519Z,98.08
2017-08-10T04:34:13.729Z,100.00
2017-08-10T04:36:43.783Z,99.77
2017-08-10T04:39:13.174Z,98.85
2017-08-10T04:41:44.879Z,100.00
2017-08-10T04:44:15.174Z,100.00
2017-08-10T04:46:44.543Z,100.00
2017-08-10T04:49:14.399Z,98.86
2017-08-10T04:51:43.710Z,98.29
2017-08-10T04:54:13.683Z,98.72
2017-08-10T04:56:43.352Z,98.87
2017-08-10T04:59:12.658Z,95.88
2017-08-10T05:01:42.011Z,92.96
2017-08-10T05:04:11.859Z,91.56
2017-08-10T05:06:44.671Z,92.80
2017-08-10T05:09:16.940Z,97.70
2017-08-10T05:11:46.481Z,98.94
2017-08-10T05:14:17.110Z,100.00
2017-08-10T05:16:46.418Z,100.00
2017-08-10T05:19:16.843Z,99.90
2017-08-10T05:21:49.018Z,100.00
2017-08-10T05:24:20.823Z,98.22
2017-08-10T05:26:50.763Z,99.78
2017-08-10T05:29:23.407Z,100.00
2017-08-10T05:31:52.609Z,99.69
2017-08-10T05:34:22.531Z,100.00
2017-08-10T05:36:51.822Z,100.00
2017-08-10T05:39:21.715Z,100.00
2017-08-10T05:41:50.917Z,100.00
2017-08-10T05:44:20.429Z,100.00
2017-08-10T05:46:50.578Z,100.00
2017-08-10T05:49:20.597Z,100.00
2017-08-10T05:51:50.019Z,100.00
2017-08-10T05:54:19.834Z,100.00
2017-08-10T05:56:49.226Z,100.00
2017-08-10T05:59:18.694Z,100.00
2017-08-10T06:01:47.855Z,100.00
2017-08-10T06:04:17.697Z,100.00
2017-08-10T06:06:47.048Z,99.14
2017-08-10T06:09:16.355Z,100.00
2017-08-10T06:11:46.041Z,98.45
2017-08-10T06:14:15.329Z,100.00
2017-08-10T06:16:44.779Z,100.00
2017-08-10T06:19:14.780Z,99.52
2017-08-10T06:21:43.979Z,100.00
2017-08-10T06:24:13.632Z,100.00
2017-08-10T06:26:43.644Z,99.22
2017-08-10T06:29:13.703Z,99.17
2017-08-10T06:31:42.884Z,100.00
2017-08-10T06:34:13.151Z,99.34
2017-08-10T06:36:43.139Z,98.82
2017-08-10T06:39:12.927Z,99.00
2017-08-10T06:41:42.659Z,97.80
2017-08-10T06:44:12.464Z,96.82
2017-08-10T06:46:41.806Z,98.70
2017-08-10T06:49:11.000Z,99.76
2017-08-10T06:51:41.519Z,100.00
2017-08-10T06:54:11.030Z,100.00
2017-08-10T06:56:40.271Z,99.95
2017-08-10T06:59:09.887Z,100.00
2017-08-10T07:01:39.735Z,100.00
2017-08-10T07:04:10.295Z,98.01
2017-08-10T07:06:39.983Z,99.26
2017-08-10T07:09:09.183Z,99.94
2017-08-10T07:11:45.794Z,99.89
2017-08-10T07:14:15.851Z,99.54
2017-08-10T07:16:45.092Z,98.16
2017-08-10T07:19:14.731Z,100.00
2017-08-10T07:21:45.168Z,100.00
2017-08-10T07:24:14.375Z,99.85
2017-08-10T07:26:44.242Z,100.00
2017-08-10T07:29:17.489Z,100.00
2017-08-10T07:31:46.799Z,100.00
2017-08-10T07:34:16.206Z,100.00
2017-08-10T07:36:48.159Z,100.00
2017-08-10T07:39:20.087Z,100.00
2017-08-10T07:41:50.000Z,100.00
2017-08-10T07:44:19.532Z,100.00
2017-08-10T07:46:50.073Z,100.00
2017-08-10T07:49:20.627Z,100.00
2017-08-10T07:51:50.374Z,100.00
2017-08-10T07:54:20.375Z,100.00
2017-08-10T07:56:53.180Z,100.00
2017-08-10T07:59:23.760Z,100.00
2017-08-10T08:01:54.215Z,100.00
2017-08-10T08:04:42.503Z,100.00
2017-08-10T08:07:13.358Z,100.00
2017-08-10T08:09:43.718Z,100.00
2017-08-10T08:12:13.458Z,98.99
2017-08-10T08:14:43.215Z,98.52
2017-08-10T08:17:14.591Z,98.07
2017-08-10T08:19:48.856Z,96.42
2017-08-10T08:22:18.496Z,96.82
2017-08-10T08:24:48.121Z,97.48
2017-08-10T08:27:21.459Z,96.64
2017-08-10T08:29:53.934Z,96.53
2017-08-10T08:32:34.816Z,95.50
2017-08-10T08:35:05.294Z,95.06
2017-08-10T08:37:36.188Z,95.99
2017-08-10T08:40:08.480Z,96.09
2017-08-10T08:42:38.230Z,92.39
2017-08-10T08:45:08.985Z,92.76
2017-08-10T08:47:40.107Z,95.68
2017-08-10T08:50:13.154Z,93.09
2017-08-10T08:52:42.615Z,93.14
2017-08-10T08:55:16.655Z,94.22
2017-08-10T08:57:46.087Z,93.24
2017-08-10T09:00:15.940Z,92.11
2017-08-10T09:02:47.343Z,92.53
2017-08-10T09:05:16.769Z,92.66
2017-08-10T09:07:47.274Z,89.20
2017-08-10T09:10:17.644Z,89.81
2017-08-10T09:12:47.273Z,90.56
2017-08-10T09:15:16.578Z,89.74
2017-08-10T09:17:46.229Z,88.83
2017-08-10T09:20:16.534Z,88.98
2017-08-10T09:22:45.691Z,87.95
2017-08-10T09:25:15.222Z,86.58
2017-08-10T09:27:44.647Z,86.84
2017-08-10T09:30:17.623Z,87.54
2017-08-10T09:32:47.107Z,87.43
2017-08-10T09:35:16.519Z,88.52
2017-08-10T09:37:50.630Z,87.39
2017-08-10T09:40:20.214Z,88.01
2017-08-10T09:42:49.630Z,87.04
2017-08-10T09:45:19.311Z,87.44
2017-08-10T09:47:49.087Z,89.17
2017-08-10T09:50:18.274Z,88.44
2017-08-10T09:52:48.091Z,88.31
2017-08-10T09:55:18.231Z,88.18
2017-08-10T09:57:48.280Z,84.88
2017-08-10T10:00:17.475Z,84.71
2017-08-10T10:02:47.083Z,85.69
2017-08-10T10:05:16.211Z,86.24
2017-08-10T10:07:45.449Z,86.85
2017-08-10T10:10:14.896Z,86.15
2017-08-10T10:12:44.126Z,85.46
2017-08-10T10:15:13.823Z,85.62
2017-08-10T10:17:43.310Z,84.33
2017-08-10T10:20:12.643Z,83.49
2017-08-10T10:22:41.854Z,82.77
2017-08-10T10:25:11.659Z,81.41
2017-08-10T10:27:42.739Z,81.63
2017-08-10T10:30:12.819Z,79.33
2017-08-10T10:32:42.476Z,81.09
2017-08-10T10:35:12.972Z,79.80
2017-08-10T10:37:43.667Z,79.24
2017-08-10T10:40:13.301Z,80.74
2017-08-10T10:42:42.492Z,80.45
2017-08-10T10:45:12.669Z,79.78
2017-08-10T10:47:41.999Z,81.41
2017-08-10T10:50:12.654Z,78.44
2017-08-10T10:52:42.546Z,81.44
2017-08-10T10:55:12.110Z,81.11
2017-08-10T10:57:41.295Z,82.00
2017-08-10T11:00:11.039Z,82.12
2017-08-10T11:02:40.211Z,80.03
2017-08-10T11:05:09.495Z,82.58
2017-08-10T11:07:38.939Z,84.31
2017-08-10T11:10:08.410Z,87.62
2017-08-10T11:12:37.635Z,86.04
2017-08-10T11:15:08.403Z,88.54
2017-08-10T11:17:37.911Z,84.34
2017-08-10T11:20:07.801Z,81.31
2017-08-10T11:22:37.365Z,83.72
2017-08-10T11:25:07.947Z,84.35
2017-08-10T11:27:37.149Z,81.34
2017-08-10T11:30:08.333Z,82.71
2017-08-10T11:32:37.838Z,82.23
2017-08-10T11:35:08.842Z,79.55
2017-08-10T11:37:38.388Z,78.73
2017-08-10T11:40:07.643Z,80.80
2017-08-10T11:42:37.013Z,80.21
2017-08-10T11:45:06.569Z,78.82
2017-08-10T11:47:35.826Z,80.04
2017-08-10T11:50:05.463Z,79.05
2017-08-10T11:52:35.042Z,78.48
2017-08-10T11:55:04.606Z,78.14
2017-08-10T11:57:33.934Z,78.15
2017-08-10T12:00:08.297Z,78.08
2017-08-10T12:02:38.189Z,80.27
2017-08-10T12:05:08.644Z,80.42
2017-08-10T12:07:38.113Z,80.92
2017-08-10T12:10:07.448Z,79.36
2017-08-10T12:12:36.677Z,81.02
2017-08-10T12:15:07.292Z,80.15
2017-08-10T12:17:37.258Z,80.73
2017-08-10T12:20:09.383Z,80.25
2017-08-10T12:22:38.925Z,79.52
2017-08-10T12:25:08.304Z,80.38
2017-08-10T12:27:37.738Z,79.66
2017-08-10T12:30:07.948Z,78.38
2017-08-10T12:32:37.414Z,78.12
2017-08-10T12:35:07.636Z,80.06
2017-08-10T12:37:37.238Z,80.00
2017-08-10T12:40:07.079Z,80.29
2017-08-10T12:42:36.839Z,81.11
2017-08-10T12:45:06.616Z,80.23
2017-08-10T12:47:36.351Z,80.70
2017-08-10T12:50:07.188Z,79.96
2017-08-10T12:52:37.144Z,79.45
2017-08-10T12:55:10.161Z,80.09
2017-08-10T12:57:40.520Z,79.79
2017-08-10T13:00:10.447Z,80.92
2017-08-10T13:02:40.387Z,80.85
2017-08-10T13:05:10.446Z,80.69
2017-08-10T13:07:40.259Z,79.65
2017-08-10T13:10:09.619Z,79.04
2017-08-10T13:12:38.843Z,79.96
2017-08-10T13:15:08.707Z,79.29
2017-08-10T13:17:37.937Z,80.63
2017-08-10T13:20:08.519Z,78.32
2017-08-10T13:22:38.734Z,78.45
2017-08-10T13:25:08.379Z,78.78
2017-08-10T13:27:41.947Z,79.53
2017-08-10T13:30:12.138Z,79.90
2017-08-10T13:32:41.406Z,79.68
2017-08-10T13:35:10.934Z,78.53
2017-08-10T13:37:40.515Z,78.19
2017-08-10T13:40:11.137Z,78.43
2017-08-10T13:42:40.445Z,78.43
2017-08-10T13:45:12.189Z,79.34
2017-08-10T13:47:41.422Z,78.50
2017-08-10T13:50:12.127Z,79.51
2017-08-10T13:52:41.688Z,80.07
2017-08-10T13:55:13.218Z,80.38
2017-08-10T13:57:43.427Z,78.58
2017-08-10T14:00:13.534Z,79.61
2017-08-10T14:02:42.967Z,78.43
2017-08-10T14:05:13.509Z,78.04
2017-08-10T14:07:43.581Z,78.45
2017-08-10T14:10:14.111Z,76.58
2017-08-10T14:12:43.328Z,76.43
2017-08-10T14:15:13.089Z,76.73
2017-08-10T14:17:42.400Z,77.26
2017-08-10T14:20:14.306Z,77.19
2017-08-10T14:22:43.823Z,77.88
2017-08-10T14:25:14.043Z,78.28
2017-08-10T14:27:43.362Z,78.40
2017-08-10T14:30:13.124Z,79.45
2017-08-10T14:32:51.218Z,79.51
2017-08-10T14:35:21.806Z,78.67
2017-08-10T14:37:54.476Z,78.24
2017-08-10T14:40:25.608Z,78.96
2017-08-10T14:42:55.928Z,78.42
2017-08-10T14:45:26.094Z,77.08
2017-08-10T14:47:56.598Z,77.81
2017-08-10T14:50:26.588Z,78.59
2017-08-10T14:52:56.094Z,79.44
2017-08-10T14:55:25.411Z,79.74
2017-08-10T14:57:55.051Z,78.70
2017-08-10T15:00:24.586Z,77.98
2017-08-10T15:02:53.977Z,77.85
2017-08-10T15:05:23.615Z,80.28
2017-08-10T15:07:53.386Z,79.42
2017-08-10T15:11:08.422Z,78.38
2017-08-10T15:13:39.415Z,78.84
2017-08-10T15:16:08.586Z,78.92
2017-08-10T15:18:37.810Z,79.43
2017-08-10T15:21:07.395Z,79.10
2017-08-10T15:23:36.614Z,79.12
2017-08-10T15:26:05.955Z,79.38
2017-08-10T15:28:35.495Z,79.70
2017-08-10T15:31:05.028Z,79.35
2017-08-10T15:33:34.211Z,79.76
2017-08-10T15:36:03.743Z,79.20
2017-08-10T15:38:34.136Z,79.38
2017-08-10T15:41:05.567Z,78.66
2017-08-10T15:43:35.079Z,79.57
2017-08-10T15:46:04.399Z,79.97
2017-08-10T15:48:33.751Z,79.44
2017-08-10T15:51:03.275Z,79.70
2017-08-10T15:53:32.699Z,79.63
2017-08-10T15:56:01.953Z,79.92
2017-08-10T15:58:31.412Z,81.44
2017-08-10T16:01:01.304Z,80.87
2017-08-10T16:03:30.498Z,79.96
2017-08-10T16:06:03.558Z,81.19
2017-08-10T16:08:33.263Z,80.50
2017-08-10T16:11:04.216Z,81.75
2017-08-10T16:13:34.092Z,81.34
2017-08-10T16:16:03.531Z,81.58
2017-08-10T16:18:32.764Z,81.87
2017-08-10T16:21:02.295Z,80.34
2017-08-10T16:23:31.517Z,81.75
2017-08-10T16:26:00.841Z,82.01
2017-08-10T16:28:30.399Z,83.08
2017-08-10T16:31:00.759Z,81.48
2017-08-10T16:33:30.335Z,81.24
2017-08-10T16:36:00.740Z,80.74
2017-08-10T16:38:30.107Z,76.09
2017-08-10T16:41:00.460Z,77.33
2017-08-10T16:43:31.165Z,79.13
2017-08-10T16:46:00.599Z,78.66
2017-08-10T16:48:30.012Z,78.07
2017-08-10T16:50:59.823Z,77.04
2017-08-10T16:53:30.664Z,78.10
2017-08-10T16:56:01.669Z,79.76
2017-08-10T16:58:32.591Z,80.78
2017-08-10T17:01:02.791Z,80.38
2017-08-10T17:03:33.559Z,80.58
2017-08-10T17:06:05.170Z,80.12
2017-08-10T17:08:34.534Z,80.65
2017-08-10T17:11:04.247Z,79.52
2017-08-10T17:13:33.764Z,78.54
2017-08-10T17:16:03.399Z,78.92
2017-08-10T17:18:32.782Z,79.77
2017-08-10T17:21:03.507Z,80.59
2017-08-10T17:23:32.897Z,81.03
2017-08-10T17:26:02.482Z,81.45
2017-08-10T17:28:32.471Z,80.74
2017-08-10T17:31:02.078Z,81.21
2017-08-10T17:33:31.490Z,80.62
2017-08-10T17:36:01.195Z,81.24
2017-08-10T17:38:33.143Z,81.04
2017-08-10T17:41:02.459Z,81.95
2017-08-10T17:43:32.511Z,81.42
2017-08-10T17:46:02.122Z,81.70
2017-08-10T17:48:31.645Z,82.20
2017-08-10T17:51:01.202Z,82.58
2017-08-10T17:53:30.777Z,83.05
2017-08-10T17:55:59.955Z,82.61
2017-08-10T17:58:29.555Z,82.59
2017-08-10T18:01:00.142Z,82.55
2017-08-10T18:03:28.278Z,82.71
2017-08-10T18:05:57.935Z,82.42
2017-08-10T18:08:27.587Z,82.11
2017-08-10T18:10:58.095Z,81.52
2017-08-10T18:13:27.683Z,81.76
2017-08-10T18:15:59.302Z,82.19
2017-08-10T18:18:30.007Z,82.51
2017-08-10T18:21:01.706Z,81.76
2017-08-10T18:23:30.982Z,82.20
2017-08-10T18:26:00.900Z,81.91
2017-08-10T18:28:30.964Z,81.76
2017-08-10T18:31:01.975Z,81.00
2017-08-10T18:33:31.159Z,80.89
2017-08-10T18:36:01.651Z,80.51
2017-08-10T18:38:30.836Z,81.79
2017-08-10T18:41:00.717Z,81.70
2017-08-10T18:43:30.222Z,80.66
2017-08-10T18:46:01.420Z,81.05
2017-08-10T18:48:31.019Z,81.77
2017-08-10T18:51:01.527Z,81.12
2017-08-10T18:53:30.948Z,81.26
2017-08-10T18:56:01.923Z,81.12
2017-08-10T18:58:31.439Z,80.81
2017-08-10T19:01:01.002Z,81.02
2017-08-10T19:03:30.479Z,80.71
2017-08-10T19:06:04.582Z,81.25
2017-08-10T19:08:33.782Z,83.44
2017-08-10T19:11:03.242Z,82.28
2017-08-10T19:13:36.892Z,82.92
2017-08-10T19:16:06.218Z,83.10
2017-08-10T19:18:35.523Z,82.68
2017-08-10T19:21:05.095Z,82.89
2017-08-10T19:23:34.575Z,85.38
2017-08-10T19:26:04.436Z,86.87
2017-08-10T19:28:36.824Z,88.41
2017-08-10T19:31:06.347Z,89.31
2017-08-10T19:33:36.008Z,89.53
2017-08-10T19:36:05.262Z,91.23
2017-08-10T19:38:34.644Z,94.46
2017-08-10T19:41:04.224Z,96.17
2017-08-10T19:43:33.509Z,99.17
2017-08-10T19:46:02.830Z,100.00
2017-08-10T19:48:33.355Z,100.00
2017-08-10T19:51:02.847Z,100.00
2017-08-10T19:53:32.075Z,100.00
2017-08-10T19:56:01.688Z,99.63
2017-08-10T19:58:30.951Z,100.00
2017-08-10T20:01:01.149Z,100.00
2017-08-10T20:03:30.809Z,100.00
2017-08-10T20:06:01.564Z,98.33
2017-08-10T20:08:32.386Z,95.67
2017-08-10T20:11:02.040Z,94.01
2017-08-10T20:13:32.951Z,96.32
2017-08-10T20:16:02.913Z,94.05
2017-08-10T20:18:33.275Z,94.63
2017-08-10T20:21:02.791Z,93.10
2017-08-10T20:23:32.392Z,93.85
2017-08-10T20:26:02.199Z,92.81
2017-08-10T20:28:35.836Z,95.33
2017-08-10T20:31:05.179Z,94.81
2017-08-10T20:33:34.700Z,94.29
2017-08-10T20:36:04.234Z,93.52
2017-08-10T20:38:34.331Z,93.61
2017-08-10T20:41:20.562Z,94.31
2017-08-10T20:44:04.187Z,95.10
2017-08-10T20:46:34.010Z,94.90
2017-08-10T20:49:15.825Z,95.54
2017-08-10T20:51:47.194Z,98.07
2017-08-10T20:54:16.487Z,96.05
2017-08-10T20:56:45.758Z,94.70
2017-08-10T20:59:15.294Z,96.11
2017-08-10T21:01:45.820Z,97.15
2017-08-10T21:04:15.011Z,96.44
2017-08-10T21:06:46.299Z,97.43
2017-08-10T21:09:15.986Z,98.39
2017-08-10T21:11:45.184Z,98.85
2017-08-10T21:14:14.805Z,99.48
2017-08-10T21:16:44.350Z,99.89
2017-08-10T21:19:13.540Z,100.00
2017-08-10T21:21:43.055Z,99.13
2017-08-10T21:24:12.234Z,98.67
2017-08-10T21:26:41.821Z,97.69
2017-08-10T21:29:11.628Z,96.09
2017-08-10T21:31:40.957Z,96.15
2017-08-10T21:34:10.131Z,96.63
2017-08-10T21:36:40.664Z,96.58
2017-08-10T21:39:09.882Z,95.87
2017-08-10T21:41:39.126Z,96.17
2017-08-10T21:44:09.129Z,97.89
2017-08-10T21:46:38.539Z,96.33
2017-08-10T21:49:08.101Z,96.67
2017-08-10T21:51:38.069Z,96.72
2017-08-10T21:54:07.360Z,95.87
2017-08-10T21:56:36.568Z,94.64
2017-08-10T21:59:06.098Z,95.22
2017-08-10T22:01:35.366Z,95.15
2017-08-10T22:04:05.335Z,95.67
2017-08-10T22:06:35.840Z,96.33
2017-08-10T22:09:05.379Z,98.55
2017-08-10T22:11:35.498Z,97.64
2017-08-10T22:14:05.150Z,95.99
2017-08-10T22:16:34.399Z,95.58
2017-08-10T22:19:03.902Z,95.85
2017-08-10T22:21:33.604Z,96.86
2017-08-10T22:24:02.915Z,95.08
2017-08-10T22:26:32.167Z,95.58
2017-08-10T22:29:01.850Z,96.77
2017-08-10T22:31:31.187Z,96.03
2017-08-10T22:34:00.801Z,96.93
2017-08-10T22:36:30.793Z,97.15
2017-08-10T22:39:00.611Z,97.55
2017-08-10T22:41:30.302Z,98.82
2017-08-10T22:43:59.855Z,96.99
2017-08-10T22:46:29.578Z,98.36
2017-08-10T22:48:59.052Z,98.54
2017-08-10T22:51:29.031Z,98.36
2017-08-10T22:53:59.572Z,96.91
2017-08-10T22:56:28.919Z,97.21
2017-08-10T22:58:59.795Z,98.30
2017-08-10T23:01:29.698Z,98.14
2017-08-10T23:03:59.472Z,97.90
2017-08-10T23:06:28.931Z,99.04
2017-08-10T23:08:58.621Z,100.00
2017-08-10T23:11:27.980Z,100.00
2017-08-10T23:13:57.955Z,100.00
2017-08-10T23:16:27.717Z,100.00
2017-08-10T23:18:57.281Z,100.00
2017-08-10T23:21:32.415Z,100.00
2017-08-10T23:24:02.442Z,100.00
2017-08-10T23:26:32.351Z,100.00
2017-08-10T23:29:03.713Z,99.83
2017-08-10T23:31:36.367Z,99.13
2017-08-10T23:34:06.222Z,100.00
2017-08-10T23:36:35.673Z,99.88
2017-08-10T23:39:05.774Z,98.84
2017-08-10T23:41:34.995Z,99.70
2017-08-10T23:44:05.247Z,99.61
2017-08-10T23:46:34.610Z,100.00
2017-08-10T23:49:03.790Z,100.00
2017-08-10T23:51:33.587Z,100.00
2017-08-10T23:54:03.161Z,99.89
2017-08-10T23:56:32.739Z,100.00
2017-08-10T23:59:02.631Z,100.00
